Terminal Aerodrome Forecast
Issued by NWS Shreveport, LA

Home | Current Version | Previous Version | Text Only | Print | Product List | Glossary On
Versions: 1 2 3 4 5 6 7 8 9 10 11 12 13 14 15 16 17 18 19 20
159
FTUS44 KSHV 310305 AAA
TAFTXK
TAF AMD
KTXK 310305Z 3103/3124 VRB03KT 2SM RA BR VCTS SCT050CB SCT120
      BKN250
     FM310600 VRB03KT P6SM VCSH SCT040 SCT120
      TEMPO 3110/3113 4SM BR FEW020
     FM311500 20005KT P6SM SCT030 SCT080 SCT200=

USA.gov is the U.S. government's official web portal to all federal, state and local government web resources and services.